createdAt,value
2017-02-04T00:00:39.507Z,992.49
2017-02-04T00:01:20.031Z,992.52
2017-02-04T00:02:00.517Z,992.49
2017-02-04T00:02:41.021Z,992.43
2017-02-04T00:03:21.530Z,992.42
2017-02-04T00:04:02.040Z,992.4
2017-02-04T00:04:42.516Z,992.42
2017-02-04T00:05:23.040Z,992.44
2017-02-04T00:06:03.505Z,992.4
2017-02-04T00:06:44.037Z,992.41
2017-02-04T00:07:24.500Z,992.4
2017-02-04T00:08:05.014Z,992.37
2017-02-04T00:08:45.512Z,992.35
2017-02-04T00:09:26.050Z,992.37
2017-02-04T00:10:06.518Z,992.36
2017-02-04T00:10:47.047Z,992.39
2017-02-04T00:11:27.481Z,992.34
2017-02-04T00:12:07.967Z,992.32
2017-02-04T00:12:48.451Z,992.41
2017-02-04T00:13:28.986Z,992.31
2017-02-04T00:14:09.413Z,992.33
2017-02-04T00:14:49.907Z,992.32
2017-02-04T00:15:30.394Z,992.39
2017-02-04T00:16:10.889Z,992.37
2017-02-04T00:16:51.431Z,992.4
2017-02-04T00:17:31.917Z,992.4
2017-02-04T00:18:12.433Z,992.37
2017-02-04T00:18:52.908Z,992.44
2017-02-04T00:19:33.421Z,992.4
2017-02-04T00:20:13.930Z,992.38
2017-02-04T00:20:54.435Z,992.46
2017-02-04T00:21:34.887Z,992.41
2017-02-04T00:22:15.440Z,992.36
2017-02-04T00:22:55.887Z,992.37
2017-02-04T00:23:36.371Z,992.42
2017-02-04T00:24:16.915Z,992.42
2017-02-04T00:24:57.329Z,992.4
2017-02-04T00:25:37.811Z,992.41
2017-02-04T00:26:18.309Z,992.44
2017-02-04T00:26:58.790Z,992.42
2017-02-04T00:27:39.283Z,992.42
2017-02-04T00:28:19.742Z,992.4
2017-02-04T00:29:00.213Z,992.39
2017-02-04T00:29:40.738Z,992.43
2017-02-04T00:30:21.174Z,992.49
2017-02-04T00:31:01.709Z,992.44
2017-02-04T00:31:42.169Z,992.45
2017-02-04T00:32:22.630Z,992.5
2017-02-04T00:33:03.149Z,992.5
2017-02-04T00:33:43.673Z,992.48
2017-02-04T00:34:24.118Z,992.4
2017-02-04T00:35:04.649Z,992.52
2017-02-04T00:35:45.089Z,992.5
2017-02-04T00:36:25.600Z,992.5
2017-02-04T00:37:06.102Z,992.54
2017-02-04T00:37:46.610Z,992.56
2017-02-04T00:38:27.045Z,992.57
2017-02-04T00:39:07.698Z,992.51
2017-02-04T00:39:48.171Z,992.58
2017-02-04T00:40:28.651Z,992.56
2017-02-04T00:41:09.125Z,992.64
2017-02-04T00:41:49.649Z,992.57
2017-02-04T00:42:30.167Z,992.68
2017-02-04T00:43:10.657Z,992.62
2017-02-04T00:43:51.110Z,992.59
2017-02-04T00:44:31.569Z,992.64
2017-02-04T00:45:12.054Z,992.66
2017-02-04T00:45:52.562Z,992.63
2017-02-04T00:46:33.224Z,992.59
2017-02-04T00:47:13.769Z,992.64
2017-02-04T00:47:54.295Z,992.7
2017-02-04T00:48:34.752Z,992.72
2017-02-04T00:49:15.307Z,992.75
2017-02-04T00:49:55.814Z,992.7
2017-02-04T00:50:36.312Z,992.82
2017-02-04T00:51:16.817Z,992.86
2017-02-04T00:51:57.398Z,992.84
2017-02-04T00:52:37.854Z,992.82
2017-02-04T00:53:18.377Z,992.89
2017-02-04T00:53:58.823Z,992.9
2017-02-04T00:54:39.307Z,992.94
2017-02-04T00:55:19.839Z,993
2017-02-04T00:56:00.238Z,992.99
2017-02-04T00:56:40.727Z,993.02
2017-02-04T00:57:21.267Z,993
2017-02-04T00:58:01.975Z,992.98
2017-02-04T00:58:42.412Z,993.03
2017-02-04T00:59:22.904Z,993.03
2017-02-04T01:00:03.379Z,993.04
2017-02-04T01:00:43.893Z,993.11
2017-02-04T01:01:24.395Z,993.03
2017-02-04T01:02:04.899Z,993.16
2017-02-04T01:02:45.373Z,993.1
2017-02-04T01:03:25.841Z,993.07
2017-02-04T01:04:06.405Z,993.03
2017-02-04T01:04:46.878Z,993.07
2017-02-04T01:05:27.357Z,993.05
2017-02-04T01:06:08.155Z,993.06
2017-02-04T01:06:48.632Z,993.11
2017-02-04T01:07:29.162Z,993.18
2017-02-04T01:08:09.605Z,993.12
2017-02-04T01:08:50.132Z,993.13
2017-02-04T01:09:30.581Z,993.18
2017-02-04T01:10:11.065Z,993.13
2017-02-04T01:10:51.637Z,993.17
2017-02-04T01:11:32.047Z,993.13
2017-02-04T01:12:12.558Z,993.22
2017-02-04T01:12:53.061Z,993.17
2017-02-04T01:13:33.511Z,993.24
2017-02-04T01:14:14.067Z,993.22
2017-02-04T01:14:54.517Z,993.24
2017-02-04T01:15:35.006Z,993.18
2017-02-04T01:16:15.472Z,993.17
2017-02-04T01:16:55.952Z,993.2
2017-02-04T01:17:36.477Z,993.27
2017-02-04T01:18:16.975Z,993.19
2017-02-04T01:18:57.393Z,993.24
2017-02-04T01:19:37.895Z,993.25
2017-02-04T01:20:18.526Z,993.26
2017-02-04T01:20:59.098Z,993.32
2017-02-04T01:21:39.520Z,993.29
2017-02-04T01:22:20.008Z,993.31
2017-02-04T01:23:00.505Z,993.32
2017-02-04T01:23:41.022Z,993.22
2017-02-04T01:24:21.518Z,993.25
2017-02-04T01:25:02.003Z,993.26
2017-02-04T01:25:42.578Z,993.23
2017-02-04T01:26:22.996Z,993.27
2017-02-04T01:27:03.527Z,993.25
2017-02-04T01:27:44.016Z,993.23
2017-02-04T01:28:24.501Z,993.24
2017-02-04T01:29:04.999Z,993.26
2017-02-04T01:29:45.550Z,993.23
2017-02-04T01:30:26.034Z,993.27
2017-02-04T01:31:06.561Z,993.2
2017-02-04T01:31:47.000Z,993.13
2017-02-04T01:32:27.537Z,993.24
2017-02-04T01:33:07.980Z,993.29
2017-02-04T01:33:48.538Z,993.22
2017-02-04T01:34:29.029Z,993.26
2017-02-04T01:35:09.579Z,993.2
2017-02-04T01:35:50.030Z,993.21
2017-02-04T01:36:30.530Z,993.27
2017-02-04T01:37:11.042Z,993.28
2017-02-04T01:37:51.504Z,993.13
2017-02-04T01:38:31.981Z,993.31
2017-02-04T01:39:12.561Z,993.26
2017-02-04T01:39:53.002Z,993.27
2017-02-04T01:40:33.458Z,993.2
2017-02-04T01:41:13.991Z,993.16
2017-02-04T01:41:54.474Z,993.19
2017-02-04T01:42:35.139Z,993.19
2017-02-04T01:43:15.637Z,993.11
2017-02-04T01:43:56.166Z,993.17
2017-02-04T01:44:36.650Z,993.17
2017-02-04T01:45:17.135Z,993.17
2017-02-04T01:45:57.652Z,993.14
2017-02-04T01:46:38.083Z,993.16
2017-02-04T01:47:18.545Z,993.15
2017-02-04T01:47:59.067Z,993.15
2017-02-04T01:48:39.569Z,993.14
2017-02-04T01:49:20.030Z,993.16
2017-02-04T01:50:00.579Z,993.15
2017-02-04T01:50:41.049Z,993.03
2017-02-04T01:51:21.564Z,993.11
2017-02-04T01:52:02.008Z,993.07
2017-02-04T01:52:42.521Z,993.05
2017-02-04T01:53:22.981Z,993.09
2017-02-04T01:54:03.506Z,993.03
2017-02-04T01:54:44.038Z,993.08
2017-02-04T01:55:24.511Z,992.99
2017-02-04T01:56:05.002Z,993.06
2017-02-04T01:56:45.508Z,993.01
2017-02-04T01:57:25.959Z,992.99
2017-02-04T01:58:06.491Z,993.01
2017-02-04T01:58:46.957Z,992.97
2017-02-04T01:59:27.496Z,992.95
2017-02-04T02:00:07.980Z,992.94
2017-02-04T02:00:48.439Z,992.94
2017-02-04T02:01:28.932Z,992.95
2017-02-04T02:02:09.443Z,992.93
2017-02-04T02:02:49.889Z,992.92
2017-02-04T02:03:30.431Z,992.95
2017-02-04T02:04:10.877Z,992.89
2017-02-04T02:04:51.392Z,992.97
2017-02-04T02:05:31.890Z,992.94
2017-02-04T02:06:12.366Z,992.89
2017-02-04T02:06:52.846Z,992.95
2017-02-04T02:07:33.458Z,993
2017-02-04T02:08:13.940Z,992.91
2017-02-04T02:08:54.412Z,992.94
2017-02-04T02:09:34.871Z,992.94
2017-02-04T02:10:15.443Z,992.94
2017-02-04T02:10:55.892Z,992.89
2017-02-04T02:11:36.420Z,992.89
2017-02-04T02:12:16.945Z,992.85
2017-02-04T02:12:57.438Z,992.84
2017-02-04T02:13:37.868Z,992.83
2017-02-04T02:14:18.360Z,992.81
2017-02-04T02:14:58.823Z,992.84
2017-02-04T02:15:39.355Z,992.82
2017-02-04T02:16:19.837Z,992.83
2017-02-04T02:17:00.346Z,992.82
2017-02-04T02:17:40.912Z,992.78
2017-02-04T02:18:21.311Z,992.81
2017-02-04T02:19:01.820Z,992.75
2017-02-04T02:19:42.308Z,992.74
2017-02-04T02:20:22.779Z,992.75
2017-02-04T02:21:03.267Z,992.72
2017-02-04T02:21:43.727Z,992.72
2017-02-04T02:22:24.267Z,992.64
2017-02-04T02:23:04.743Z,992.71
2017-02-04T02:23:45.525Z,992.71
2017-02-04T02:24:25.748Z,992.68
2017-02-04T02:25:06.242Z,992.69
2017-02-04T02:25:46.719Z,992.69
2017-02-04T02:26:27.191Z,992.68
2017-02-04T02:27:07.706Z,992.68
2017-02-04T02:27:48.161Z,992.72
2017-02-04T02:28:28.642Z,992.64
2017-02-04T02:29:09.147Z,992.64
2017-02-04T02:29:49.653Z,992.66
2017-02-04T02:30:30.093Z,992.7
2017-02-04T02:32:43.464Z,992.64
2017-02-04T02:33:23.936Z,992.58
2017-02-04T02:34:04.408Z,992.59
2017-02-04T02:34:44.954Z,992.6
2017-02-04T02:35:25.401Z,992.56
2017-02-04T02:36:05.904Z,992.57
2017-02-04T02:36:46.388Z,992.56
2017-02-04T02:37:26.929Z,992.59
2017-02-04T02:38:07.446Z,992.56
2017-02-04T02:38:47.958Z,992.58
2017-02-04T02:39:28.481Z,992.52
2017-02-04T02:40:09.013Z,992.55
2017-02-04T02:40:49.476Z,992.48
2017-02-04T02:41:30.005Z,992.51
2017-02-04T02:42:10.468Z,992.49
2017-02-04T02:42:50.948Z,992.49
2017-02-04T02:43:31.480Z,992.47
2017-02-04T02:44:11.957Z,992.44
2017-02-04T02:44:52.509Z,992.47
2017-02-04T02:45:33.014Z,992.48
2017-02-04T02:46:13.534Z,992.43
2017-02-04T02:46:54.023Z,992.47
2017-02-04T02:47:34.482Z,992.46
2017-02-04T02:48:15.001Z,992.45
2017-02-04T02:48:55.483Z,992.41
2017-02-04T02:49:36.008Z,992.37
2017-02-04T02:50:16.494Z,992.42
2017-02-04T02:50:56.959Z,992.4
2017-02-04T02:51:37.492Z,992.38
2017-02-04T02:52:17.981Z,992.33
2017-02-04T02:52:58.467Z,992.34
2017-02-04T02:53:38.993Z,992.32
2017-02-04T02:54:19.429Z,992.32
2017-02-04T02:54:59.931Z,992.29
2017-02-04T02:55:40.417Z,992.28
2017-02-04T02:56:21.045Z,992.28
2017-02-04T02:57:01.586Z,992.3
2017-02-04T02:57:42.068Z,992.27
2017-02-04T02:58:22.557Z,992.23
2017-02-04T02:59:03.043Z,992.2
2017-02-04T02:59:43.564Z,992.24
2017-02-04T03:00:24.006Z,992.21
2017-02-04T03:01:04.536Z,992.22
2017-02-04T03:01:45.003Z,992.21
2017-02-04T03:02:25.536Z,992.28
2017-02-04T03:03:05.974Z,992.22
2017-02-04T03:03:46.518Z,992.24
2017-02-04T03:04:26.976Z,992.24
2017-02-04T03:05:07.531Z,992.25
2017-02-04T03:05:48.033Z,992.27
2017-02-04T03:06:28.579Z,992.25
2017-02-04T03:07:09.080Z,992.2
2017-02-04T03:07:49.579Z,992.21
2017-02-04T03:08:30.007Z,992.26
2017-02-04T03:09:10.535Z,992.21
2017-02-04T03:09:51.023Z,992.21
2017-02-04T03:10:31.482Z,992.15
2017-02-04T03:11:11.992Z,992.14
2017-02-04T03:11:52.452Z,992.16
2017-02-04T03:12:32.966Z,992.12
2017-02-04T03:13:13.563Z,992.08
2017-02-04T03:13:54.107Z,992.1
2017-02-04T03:14:34.555Z,992.07
2017-02-04T03:15:15.176Z,992.12
2017-02-04T03:15:55.941Z,992.07
2017-02-04T03:16:36.428Z,992.05
2017-02-04T03:17:16.949Z,992.07
2017-02-04T03:17:57.456Z,992.03
2017-02-04T03:18:37.952Z,992.03
2017-02-04T03:19:18.408Z,991.99
2017-02-04T03:19:58.902Z,991.96
2017-02-04T03:20:39.377Z,991.93
2017-02-04T03:21:19.951Z,991.98
2017-02-04T03:22:00.358Z,991.92
2017-02-04T03:22:40.858Z,991.95
2017-02-04T03:23:21.327Z,991.92
2017-02-04T03:24:01.821Z,991.95
2017-02-04T03:24:42.314Z,991.97
2017-02-04T03:25:22.827Z,992.01
2017-02-04T03:26:03.314Z,992.02
2017-02-04T03:26:43.822Z,991.98
2017-02-04T03:27:24.307Z,992.05
2017-02-04T03:28:04.820Z,991.98
2017-02-04T03:28:45.286Z,991.93
2017-02-04T03:29:25.764Z,991.92
2017-02-04T03:30:06.297Z,991.94
2017-02-04T03:30:46.760Z,991.93
2017-02-04T03:31:27.264Z,991.92
2017-02-04T03:32:07.794Z,991.88
2017-02-04T03:32:48.250Z,991.92
2017-02-04T03:33:28.715Z,991.93
2017-02-04T03:34:09.237Z,991.91
2017-02-04T03:34:49.678Z,991.88
2017-02-04T03:35:30.201Z,991.91
2017-02-04T03:36:10.682Z,991.89
2017-02-04T03:38:08.922Z,991.91
2017-02-04T03:38:49.397Z,991.89
2017-02-04T03:39:29.892Z,991.91
2017-02-04T03:40:10.378Z,991.92
2017-02-04T03:40:50.891Z,991.92
2017-02-04T03:41:31.382Z,991.87
2017-02-04T03:42:11.903Z,991.89
2017-02-04T03:42:52.431Z,991.9
2017-02-04T03:43:32.909Z,991.91
2017-02-04T03:44:13.330Z,991.87
2017-02-04T03:44:53.795Z,991.87
2017-02-04T03:45:34.265Z,991.89
2017-02-04T03:46:14.814Z,991.86
2017-02-04T03:46:55.269Z,991.85
2017-02-04T03:47:35.800Z,991.85
2017-02-04T03:48:16.249Z,991.86
2017-02-04T03:48:56.789Z,991.88
2017-02-04T03:49:37.202Z,991.91
2017-02-04T03:50:17.723Z,991.91
2017-02-04T03:50:58.192Z,991.9
2017-02-04T03:51:38.652Z,991.91
2017-02-04T03:52:19.187Z,991.86
2017-02-04T03:52:59.676Z,991.82
2017-02-04T03:53:40.163Z,991.82
2017-02-04T03:54:20.674Z,991.79
2017-02-04T03:56:39.030Z,991.69
2017-02-04T03:57:19.481Z,991.66
2017-02-04T03:57:59.969Z,991.68
2017-02-04T03:58:40.485Z,991.7
2017-02-04T03:59:20.997Z,991.67
2017-02-04T04:00:01.504Z,991.67
2017-02-04T04:00:41.975Z,991.63
2017-02-04T04:01:22.412Z,991.63
2017-02-04T04:02:02.915Z,991.63
2017-02-04T04:02:43.431Z,991.66
2017-02-04T04:03:23.923Z,991.6
2017-02-04T04:04:04.339Z,991.64
2017-02-04T04:04:44.838Z,991.65
2017-02-04T04:05:25.340Z,991.68
2017-02-04T04:06:05.797Z,991.66
2017-02-04T04:06:46.307Z,991.72
2017-02-04T04:07:26.866Z,991.67
2017-02-04T04:08:07.322Z,991.68
2017-02-04T04:08:47.772Z,991.67
2017-02-04T04:09:28.279Z,991.67
2017-02-04T04:10:08.782Z,991.68
2017-02-04T04:10:49.268Z,991.71
2017-02-04T04:11:29.765Z,991.71
2017-02-04T04:12:10.233Z,991.69
2017-02-04T04:12:50.766Z,991.67
2017-02-04T04:13:31.284Z,991.66
2017-02-04T04:14:11.769Z,991.68
2017-02-04T04:14:52.222Z,991.69
2017-02-04T04:15:32.711Z,991.68
2017-02-04T04:16:13.164Z,991.71
2017-02-04T04:16:53.660Z,991.67
2017-02-04T04:19:06.902Z,991.66
2017-02-04T04:19:47.412Z,991.65
2017-02-04T04:20:27.928Z,991.65
2017-02-04T04:21:08.418Z,991.63
2017-02-04T04:21:48.905Z,991.64
2017-02-04T04:22:29.409Z,991.67
2017-02-04T04:23:09.892Z,991.64
2017-02-04T04:23:50.377Z,991.68
2017-02-04T04:24:30.887Z,991.67
2017-02-04T04:25:11.383Z,991.65
2017-02-04T04:25:51.844Z,991.7
2017-02-04T04:26:32.338Z,991.71
2017-02-04T04:27:12.830Z,991.68
2017-02-04T04:27:53.303Z,991.75
2017-02-04T04:28:33.795Z,991.73
2017-02-04T04:29:14.278Z,991.77
2017-02-04T04:29:54.781Z,991.76
2017-02-04T04:30:35.289Z,991.83
2017-02-04T04:31:15.740Z,991.82
2017-02-04T04:31:56.649Z,991.83
2017-02-04T04:32:37.147Z,991.88
2017-02-04T04:33:17.636Z,991.85
2017-02-04T04:33:58.103Z,991.84
2017-02-04T04:34:38.616Z,991.86
2017-02-04T04:35:19.084Z,991.84
2017-02-04T04:35:59.553Z,991.84
2017-02-04T04:36:40.027Z,991.86
2017-02-04T04:37:20.570Z,991.8
2017-02-04T04:38:01.019Z,991.83
2017-02-04T04:38:41.513Z,991.84
2017-02-04T04:39:21.999Z,991.87
2017-02-04T04:40:02.534Z,991.86
2017-02-04T04:40:43.030Z,991.91
2017-02-04T04:41:23.540Z,991.88
2017-02-04T04:42:04.069Z,991.89
2017-02-04T04:44:22.459Z,991.91
2017-02-04T04:45:03.000Z,991.87
2017-02-04T04:45:43.504Z,991.84
2017-02-04T04:46:24.043Z,991.86
2017-02-04T04:47:04.508Z,991.84
2017-02-04T04:47:44.995Z,991.83
2017-02-04T04:48:25.472Z,991.8
2017-02-04T04:49:05.921Z,991.81
2017-02-04T04:49:46.634Z,991.79
2017-02-04T04:51:39.741Z,991.77
2017-02-04T04:52:20.195Z,991.78
2017-02-04T04:53:00.712Z,991.73
2017-02-04T04:53:41.173Z,991.78
2017-02-04T04:54:22.424Z,991.76
2017-02-04T04:55:02.930Z,991.77
2017-02-04T04:55:43.497Z,991.76
2017-02-04T04:56:23.998Z,991.74
2017-02-04T04:57:04.417Z,991.79
2017-02-04T04:57:44.934Z,991.8
2017-02-04T04:58:25.430Z,991.82
2017-02-04T04:59:05.928Z,991.8
2017-02-04T04:59:46.477Z,991.82
2017-02-04T05:00:26.944Z,991.8
2017-02-04T05:01:07.404Z,991.79
2017-02-04T05:01:47.907Z,991.79
2017-02-04T05:02:28.511Z,991.76
2017-02-04T05:03:09.028Z,991.75
2017-02-04T05:03:49.503Z,991.78
2017-02-04T05:04:30.045Z,991.79
2017-02-04T05:05:10.533Z,991.74
2017-02-04T05:05:51.076Z,991.78
2017-02-04T05:06:31.554Z,991.71
2017-02-04T05:07:12.046Z,991.67
2017-02-04T05:07:52.570Z,991.69
2017-02-04T05:08:33.053Z,991.67
2017-02-04T05:09:13.660Z,991.67
2017-02-04T05:09:54.101Z,991.66
2017-02-04T05:10:34.577Z,991.66
2017-02-04T05:11:15.035Z,991.62
2017-02-04T05:11:55.587Z,991.6
2017-02-04T05:12:36.036Z,991.59
2017-02-04T05:13:16.540Z,991.51
2017-02-04T05:13:57.013Z,991.5
2017-02-04T05:14:37.544Z,991.5
2017-02-04T05:15:18.032Z,991.49
2017-02-04T05:15:58.510Z,991.41
2017-02-04T05:16:38.999Z,991.44
2017-02-04T05:17:19.469Z,991.41
2017-02-04T05:17:59.988Z,991.34
2017-02-04T05:18:40.480Z,991.31
2017-02-04T05:19:21.005Z,991.31
2017-02-04T05:20:01.471Z,991.3
2017-02-04T05:20:41.925Z,991.31
2017-02-04T05:21:22.435Z,991.27
2017-02-04T05:22:02.923Z,991.27
2017-02-04T05:22:43.405Z,991.24
2017-02-04T05:23:23.958Z,991.23
2017-02-04T05:24:04.448Z,991.17
2017-02-04T05:24:44.936Z,991.2
2017-02-04T05:25:25.471Z,991.17
2017-02-04T05:26:05.957Z,991.19
2017-02-04T05:26:46.473Z,991.18
2017-02-04T05:27:26.956Z,991.14
2017-02-04T05:28:07.468Z,991.19
2017-02-04T05:28:47.862Z,991.14
2017-02-04T05:29:28.448Z,991.15
2017-02-04T05:30:08.922Z,991.19
2017-02-04T05:30:49.453Z,991.19
2017-02-04T05:31:29.971Z,991.14
2017-02-04T05:32:10.457Z,991.18
2017-02-04T05:32:50.925Z,991.18
2017-02-04T05:33:31.421Z,991.15
2017-02-04T05:34:11.927Z,991.17
2017-02-04T05:34:52.448Z,991.16
2017-02-04T05:35:32.916Z,991.11
2017-02-04T05:36:13.421Z,991.09
2017-02-04T05:36:53.885Z,991.11
2017-02-04T05:37:34.327Z,991.08
2017-02-04T05:38:14.880Z,991.11
2017-02-04T05:38:55.370Z,991.04
2017-02-04T05:39:35.824Z,991.11
2017-02-04T05:40:16.321Z,991.04
2017-02-04T05:40:56.839Z,991.1
2017-02-04T05:41:37.287Z,991.02
2017-02-04T05:42:17.845Z,991.03
2017-02-04T05:42:58.314Z,991.08
2017-02-04T05:43:38.830Z,991.04
2017-02-04T05:44:19.287Z,991.02
2017-02-04T05:44:59.802Z,991.03
2017-02-04T05:45:40.306Z,991.08
2017-02-04T05:46:20.817Z,991.06
2017-02-04T05:47:01.308Z,991.08
2017-02-04T05:47:41.778Z,991.06
2017-02-04T05:48:22.356Z,991.03
2017-02-04T05:49:02.919Z,991.01
2017-02-04T05:49:43.396Z,991.05
2017-02-04T05:50:23.865Z,991.04
2017-02-04T05:51:04.367Z,991.03
2017-02-04T05:51:44.879Z,991.03
2017-02-04T05:52:25.332Z,991.03
2017-02-04T05:53:05.831Z,991.03
2017-02-04T05:53:46.288Z,991.06
2017-02-04T05:54:26.786Z,991.03
2017-02-04T05:55:07.279Z,991.06
2017-02-04T05:55:47.792Z,990.97
2017-02-04T05:56:28.250Z,990.95
2017-02-04T05:57:08.722Z,990.95
2017-02-04T05:57:49.290Z,990.99
2017-02-04T05:58:29.750Z,990.95
2017-02-04T05:59:10.260Z,990.99
2017-02-04T05:59:50.738Z,990.97
2017-02-04T06:00:31.287Z,990.96
2017-02-04T06:01:11.726Z,990.97
2017-02-04T06:01:52.222Z,990.95
2017-02-04T06:02:32.702Z,990.9
2017-02-04T06:03:13.268Z,990.92
2017-02-04T06:03:53.743Z,990.92
2017-02-04T06:04:34.286Z,990.9
2017-02-04T06:05:14.788Z,990.89
2017-02-04T06:05:55.242Z,990.91
2017-02-04T06:06:35.769Z,990.9
2017-02-04T06:07:16.287Z,990.88
2017-02-04T06:07:56.819Z,990.88
2017-02-04T06:08:37.227Z,990.84
2017-02-04T06:09:17.742Z,990.86
2017-02-04T06:09:58.225Z,990.85
2017-02-04T06:10:38.673Z,990.82
2017-02-04T06:11:19.222Z,990.8
2017-02-04T06:11:59.795Z,990.83
2017-02-04T06:12:40.283Z,990.8
2017-02-04T06:13:20.767Z,990.83
2017-02-04T06:14:01.266Z,990.77
2017-02-04T06:14:41.763Z,990.82
2017-02-04T06:15:22.251Z,990.85
2017-02-04T06:16:02.758Z,990.8
2017-02-04T06:16:43.368Z,990.81
2017-02-04T06:17:23.828Z,990.77
2017-02-04T06:18:04.410Z,990.74
2017-02-04T06:18:46.286Z,990.76
2017-02-04T06:19:26.955Z,990.74
2017-02-04T06:20:07.543Z,990.72
2017-02-04T06:20:48.094Z,990.71
2017-02-04T06:21:28.608Z,990.68
2017-02-04T06:22:09.165Z,990.65
2017-02-04T06:22:49.612Z,990.68
2017-02-04T06:23:30.092Z,990.74
2017-02-04T06:24:10.622Z,990.75
2017-02-04T06:24:51.218Z,990.73
2017-02-04T06:25:31.717Z,990.71
2017-02-04T06:26:12.161Z,990.73
2017-02-04T06:26:52.658Z,990.71
2017-02-04T06:27:33.176Z,990.69
2017-02-04T06:28:13.632Z,990.78
2017-02-04T06:28:54.199Z,990.72
2017-02-04T06:29:34.657Z,990.73
2017-02-04T06:30:15.168Z,990.73
2017-02-04T06:30:55.638Z,990.77
2017-02-04T06:31:36.307Z,990.72
2017-02-04T06:32:16.830Z,990.76
2017-02-04T06:32:57.280Z,990.72
2017-02-04T06:33:37.782Z,990.7
2017-02-04T06:34:18.294Z,990.67
2017-02-04T06:34:58.747Z,990.72
2017-02-04T06:35:39.226Z,990.71
2017-02-04T06:36:19.737Z,990.72
2017-02-04T06:37:00.260Z,990.69
2017-02-04T06:37:40.735Z,990.69
2017-02-04T06:38:21.202Z,990.69
2017-02-04T06:39:01.766Z,990.68
2017-02-04T06:39:42.168Z,990.68
2017-02-04T06:40:22.941Z,990.65
2017-02-04T06:41:03.376Z,990.65
2017-02-04T06:41:43.863Z,990.65
2017-02-04T06:42:24.299Z,990.68
2017-02-04T06:43:04.821Z,990.67
2017-02-04T06:43:45.323Z,990.62
2017-02-04T06:44:25.837Z,990.69
2017-02-04T06:45:06.352Z,990.63
2017-02-04T06:45:46.818Z,990.62
2017-02-04T06:46:27.359Z,990.62
2017-02-04T06:47:07.801Z,990.56
2017-02-04T06:47:48.318Z,990.55
2017-02-04T06:48:28.776Z,990.57
2017-02-04T06:49:09.325Z,990.55
2017-02-04T06:49:50.024Z,990.51
2017-02-04T06:50:30.318Z,990.52
2017-02-04T06:51:10.792Z,990.51
2017-02-04T06:51:51.377Z,990.57
2017-02-04T06:52:31.819Z,990.58
2017-02-04T06:53:12.235Z,990.54
2017-02-04T06:53:52.845Z,990.56
2017-02-04T06:54:33.241Z,990.53
2017-02-04T06:55:13.755Z,990.53
2017-02-04T06:55:54.321Z,990.53
2017-02-04T06:56:34.793Z,990.55
2017-02-04T06:57:15.271Z,990.55
2017-02-04T06:57:55.881Z,990.55
2017-02-04T06:58:36.347Z,990.52
2017-02-04T06:59:16.837Z,990.58
2017-02-04T06:59:57.312Z,990.64
2017-02-04T07:00:37.771Z,990.7
2017-02-04T07:01:18.309Z,990.73
2017-02-04T07:01:58.732Z,990.74
2017-02-04T07:02:39.247Z,990.71
2017-02-04T07:03:19.735Z,990.78
2017-02-04T07:04:00.243Z,990.78
2017-02-04T07:04:40.734Z,990.78
2017-02-04T07:05:21.225Z,990.73
2017-02-04T07:06:01.698Z,990.73
2017-02-04T07:06:42.340Z,990.67
2017-02-04T07:07:22.817Z,990.68
2017-02-04T07:08:03.338Z,990.68
2017-02-04T07:08:43.832Z,990.67
2017-02-04T07:09:24.380Z,990.65
2017-02-04T07:10:04.799Z,990.63
2017-02-04T07:10:45.338Z,990.64
2017-02-04T07:11:25.805Z,990.66
2017-02-04T07:12:06.326Z,990.64
2017-02-04T07:12:46.758Z,990.65
2017-02-04T07:13:27.268Z,990.68
2017-02-04T07:14:07.719Z,990.64
2017-02-04T07:14:48.243Z,990.68
2017-02-04T07:15:28.712Z,990.65
2017-02-04T07:16:09.463Z,990.62
2017-02-04T07:16:49.899Z,990.58
2017-02-04T07:17:30.394Z,990.6
2017-02-04T07:18:10.886Z,990.5
2017-02-04T07:18:51.398Z,990.53
2017-02-04T07:19:32.147Z,990.45
2017-02-04T07:20:12.405Z,990.47
2017-02-04T07:20:52.888Z,990.48
2017-02-04T07:21:33.479Z,990.43
2017-02-04T07:22:13.863Z,990.38
2017-02-04T07:22:54.393Z,990.43
2017-02-04T07:23:34.921Z,990.4
2017-02-04T07:24:15.401Z,990.38
2017-02-04T07:24:55.905Z,990.38
2017-02-04T07:25:36.485Z,990.41
2017-02-04T07:26:17.011Z,990.41
2017-02-04T07:26:57.465Z,990.41
2017-02-04T07:27:38.000Z,990.41
2017-02-04T07:28:18.465Z,990.43
2017-02-04T07:28:58.961Z,990.43
2017-02-04T07:29:39.480Z,990.42
2017-02-04T07:30:19.905Z,990.42
2017-02-04T07:31:00.441Z,990.43
2017-02-04T07:31:40.935Z,990.34
2017-02-04T07:32:21.409Z,990.34
2017-02-04T07:33:02.116Z,990.33
2017-02-04T07:33:42.404Z,990.3
2017-02-04T07:34:22.829Z,990.29
2017-02-04T07:35:03.347Z,990.23
2017-02-04T07:35:43.847Z,990.22
2017-02-04T07:36:24.351Z,990.2
2017-02-04T07:37:04.801Z,990.25
2017-02-04T07:37:45.364Z,990.17
2017-02-04T07:38:25.886Z,990.21
2017-02-04T07:39:06.355Z,990.23
2017-02-04T07:39:46.826Z,990.2
2017-02-04T07:40:27.274Z,990.19
2017-02-04T07:41:07.783Z,990.19
2017-02-04T07:41:48.293Z,990.21
2017-02-04T07:42:28.840Z,990.19
2017-02-04T07:43:09.296Z,990.19
2017-02-04T07:43:49.859Z,990.28
2017-02-04T07:44:30.309Z,990.26
2017-02-04T07:45:10.843Z,990.25
2017-02-04T07:45:51.337Z,990.29
2017-02-04T07:46:31.833Z,990.21
2017-02-04T07:47:12.304Z,990.25
2017-02-04T07:47:52.772Z,990.26
2017-02-04T07:48:33.314Z,990.26
2017-02-04T07:50:26.391Z,990.21
2017-02-04T07:51:06.971Z,990.19
2017-02-04T07:51:47.541Z,990.12
2017-02-04T07:52:28.167Z,990.08
2017-02-04T07:53:08.653Z,990.1
2017-02-04T07:53:49.236Z,990.02
2017-02-04T07:54:29.753Z,990.02
2017-02-04T07:55:10.241Z,990.01
2017-02-04T07:55:50.694Z,989.97
2017-02-04T07:56:31.214Z,989.97
2017-02-04T07:57:12.320Z,989.98
2017-02-04T07:59:28.670Z,989.95
2017-02-04T08:00:19.416Z,989.91
2017-02-04T08:05:15.738Z,989.71
2017-02-04T08:07:30.483Z,989.68
2017-02-04T08:08:11.171Z,989.66
2017-02-04T08:08:51.869Z,989.67
2017-02-04T08:09:32.475Z,989.74
2017-02-04T08:10:13.026Z,989.66
2017-02-04T08:10:53.553Z,989.7
2017-02-04T08:11:34.036Z,989.66
2017-02-04T08:12:14.626Z,989.67
2017-02-04T08:12:55.773Z,989.65
2017-02-04T08:13:36.510Z,989.66
2017-02-04T08:14:17.559Z,989.67
2017-02-04T08:14:58.081Z,989.66
2017-02-04T08:16:56.596Z,989.56
2017-02-04T08:17:37.218Z,989.54
2017-02-04T08:18:17.894Z,989.51
2017-02-04T08:18:58.700Z,989.51
2017-02-04T08:19:39.215Z,989.47
2017-02-04T08:20:19.846Z,989.44
2017-02-04T08:21:00.294Z,989.48
2017-02-04T08:21:41.138Z,989.44
2017-02-04T08:22:21.564Z,989.36
2017-02-04T08:23:02.031Z,989.35
2017-02-04T08:23:42.630Z,989.39
2017-02-04T08:24:23.176Z,989.33
2017-02-04T08:26:36.597Z,989.3
2017-02-04T08:27:17.097Z,989.26
2017-02-04T08:27:57.589Z,989.33
2017-02-04T08:28:38.096Z,989.32
2017-02-04T08:29:18.886Z,989.25
2017-02-04T08:29:59.449Z,989.28
2017-02-04T08:30:39.948Z,989.24
2017-02-04T08:31:22.017Z,989.22
2017-02-04T08:32:02.523Z,989.19
2017-02-04T08:32:43.087Z,989.16
2017-02-04T08:33:23.542Z,989.24
2017-02-04T08:34:04.118Z,989.17
2017-02-04T08:34:44.566Z,989.17
2017-02-04T08:35:25.126Z,989.17
2017-02-04T08:36:05.657Z,989.15
2017-02-04T08:36:46.159Z,989.14
2017-02-04T08:37:26.693Z,989.13
2017-02-04T08:38:07.180Z,989.12
2017-02-04T08:38:47.764Z,989.09
2017-02-04T08:39:28.220Z,989.04
2017-02-04T08:40:08.723Z,989.05
2017-02-04T08:40:49.183Z,989.01
2017-02-04T08:41:29.704Z,989
2017-02-04T08:42:10.215Z,989.02
2017-02-04T08:42:50.697Z,988.96
2017-02-04T08:43:31.249Z,989
2017-02-04T08:44:11.704Z,989.01
2017-02-04T08:44:52.284Z,989.03
2017-02-04T08:45:32.721Z,989
2017-02-04T08:46:13.246Z,989.03
2017-02-04T08:46:53.687Z,989.02
2017-02-04T08:47:34.191Z,989.05